createdAt,value
2017-03-25T00:18:12.447Z,75.5
2017-03-25T00:28:23.795Z,77.4
2017-03-25T00:38:35.203Z,77.1
2017-03-25T00:48:46.583Z,77.5
2017-03-25T00:58:57.984Z,78.2
2017-03-25T01:09:09.343Z,79
2017-03-25T01:19:20.759Z,79.3
2017-03-25T01:29:32.209Z,80.4
2017-03-25T01:39:43.717Z,81.4
2017-03-25T01:49:55.172Z,81.3
2017-03-25T02:00:06.656Z,81.2
2017-03-25T02:10:18.146Z,81.6
2017-03-25T02:20:29.610Z,81.7
2017-03-25T02:30:41.118Z,81.8
2017-03-25T02:40:52.621Z,82.7
2017-03-25T02:51:04.158Z,82.7
2017-03-25T03:01:15.742Z,83.4
2017-03-25T03:11:27.268Z,84.5
2017-03-25T03:21:38.796Z,84.5
2017-03-25T03:31:50.394Z,85.2
2017-03-25T03:42:01.990Z,85.6
2017-03-25T03:52:13.638Z,86.7
2017-03-25T04:02:25.276Z,87.2
2017-03-25T04:12:36.919Z,88.4
2017-03-25T04:22:48.564Z,88
2017-03-25T04:33:00.231Z,88.6
2017-03-25T04:43:11.906Z,89.7
2017-03-25T04:53:23.633Z,90.8
2017-03-25T05:03:35.413Z,91.6
2017-03-25T05:13:47.143Z,91.2
2017-03-25T05:23:58.876Z,90.6
2017-03-25T05:34:10.576Z,89.5
2017-03-25T05:44:22.270Z,88.5
2017-03-25T05:54:33.909Z,88.2
2017-03-25T06:04:45.525Z,87.1
2017-03-25T06:14:57.099Z,87.5
2017-03-25T06:25:08.528Z,87.5
2017-03-25T06:35:19.854Z,87.1
2017-03-25T06:45:31.002Z,86
2017-03-25T06:55:42.019Z,83.9
2017-03-25T07:05:52.870Z,81.4
2017-03-25T07:16:03.512Z,76.8
2017-03-25T07:26:13.918Z,73.9
2017-03-25T07:36:24.114Z,70.7
2017-03-25T07:46:34.108Z,65
2017-03-25T07:56:43.906Z,61.6
2017-03-25T08:06:53.436Z,60.6
2017-03-25T08:17:02.825Z,59.4
2017-03-25T08:27:12.120Z,56.5
2017-03-25T08:37:21.328Z,53.5
2017-03-25T08:47:30.541Z,52
2017-03-25T08:57:39.689Z,50.5
2017-03-25T09:07:48.766Z,48
2017-03-25T09:17:57.719Z,46.5
2017-03-25T09:28:06.635Z,45.6
2017-03-25T09:38:15.551Z,44.8
2017-03-25T09:48:24.418Z,42.6
2017-03-25T09:58:33.266Z,42.5
2017-03-25T10:08:42.102Z,42.1
2017-03-25T10:18:50.982Z,39.5
2017-03-25T10:28:59.902Z,34.5
2017-03-25T10:39:08.779Z,31.3
2017-03-25T10:49:17.581Z,29.3
2017-03-25T10:59:26.267Z,31.4
2017-03-25T11:09:35.044Z,30
2017-03-25T11:19:43.832Z,30.2
2017-03-25T11:29:52.655Z,32.6
2017-03-25T11:40:01.808Z,31
2017-03-25T11:50:10.261Z,24.1
2017-03-25T12:00:19.091Z,22.2
2017-03-25T12:10:27.886Z,22.3
2017-03-25T12:20:36.691Z,20.7
2017-03-25T12:30:45.445Z,19.7
2017-03-25T12:40:54.151Z,16
2017-03-25T12:51:02.807Z,15.9
2017-03-25T13:01:11.403Z,14.9
2017-03-25T13:11:20.006Z,14.8
2017-03-25T13:21:28.629Z,15.7
2017-03-25T13:31:37.219Z,16.2
2017-03-25T13:41:45.745Z,16.8
2017-03-25T13:51:54.241Z,15.7
2017-03-25T14:02:02.793Z,15.9
2017-03-25T14:12:11.314Z,17.3
2017-03-25T14:22:19.850Z,17.7
2017-03-25T14:32:28.496Z,18.3
2017-03-25T14:42:37.172Z,19.6
2017-03-25T14:52:45.894Z,19.5
2017-03-25T15:02:54.608Z,20.6
2017-03-25T15:13:03.360Z,21.5
2017-03-25T15:23:12.193Z,22.1
2017-03-25T15:33:21.035Z,23.8
2017-03-25T15:43:29.941Z,23.9
2017-03-25T15:53:39.010Z,25.1
2017-03-25T16:03:48.470Z,25.7
2017-03-25T16:13:58.106Z,25.2
2017-03-25T16:24:07.825Z,25.8
2017-03-25T16:34:17.676Z,26
2017-03-25T16:44:27.592Z,26
2017-03-25T16:54:37.520Z,26.6
2017-03-25T17:04:47.426Z,27.4
2017-03-25T17:14:57.366Z,27.8
2017-03-25T17:25:07.497Z,28.8
2017-03-25T17:35:17.733Z,29.9
2017-03-25T17:45:28.078Z,30.6
2017-03-25T17:55:38.409Z,31.4
2017-03-25T18:05:48.833Z,31.7
2017-03-25T18:15:59.354Z,32.9
2017-03-25T18:26:09.911Z,34.8
2017-03-25T18:36:20.517Z,36.8
2017-03-25T18:46:31.169Z,38.4
2017-03-25T18:56:41.817Z,40.2
2017-03-25T19:06:52.489Z,42.1
2017-03-25T19:17:03.197Z,43.7
2017-03-25T19:27:13.999Z,44.9
2017-03-25T19:37:24.670Z,46.1
2017-03-25T19:47:35.471Z,48.3
2017-03-25T19:57:46.234Z,50.2
2017-03-25T20:07:57.111Z,51.6
2017-03-25T20:18:08.003Z,54.1
2017-03-25T20:28:18.874Z,55.7
2017-03-25T20:38:29.795Z,56
2017-03-25T20:48:40.749Z,58.4
2017-03-25T20:58:51.729Z,63.5
2017-03-25T21:09:02.743Z,68.3
2017-03-25T21:19:14.162Z,72.6
2017-03-25T21:29:24.909Z,78.3
2017-03-25T21:39:35.975Z,86
2017-03-25T21:49:47.084Z,90.7
2017-03-25T21:59:58.176Z,96.2
2017-03-25T22:10:09.327Z,98.9
2017-03-25T22:20:20.543Z,100
2017-03-25T22:30:31.741Z,100
2017-03-25T22:40:42.981Z,100
2017-03-25T22:50:54.270Z,100
2017-03-25T23:01:05.606Z,100
2017-03-25T23:11:16.880Z,100
2017-03-25T23:21:28.228Z,100
2017-03-25T23:31:39.574Z,100
2017-03-25T23:41:50.980Z,100
2017-03-25T23:52:02.386Z,100
